Argyle Township, Maine
Current Conditions -  °F | °C
As of 3:53 PM on Thursday 23 Oct 2014 (Local Time) from KBGR Reporting Station
Drizzle Drizzle  
Wind Chill: 51°   Ceiling: 900
Heat Index: 51°   Visibility: 6mi
Dew Point: 48°   Wind: 17mph
Humidity: 89%   Direction: 30°NNE
Pressure: 29.84"   Gusts: 25mph
Location:  45.0236°N, 68.7394°W
Report Text: KBGR 231953Z 03015G22KT 6SM -DZ BR BKN009 OVC015 11/09 A2984 RMK AO2 PK WND 03026/1913 RAB18E21B37E48DZB50 SLP103 P0000 T01060089
Loading
Personal Weather Stations






























Interactive Weather Map
Tropical Storm Tracking
New forecast layout! Learn more

10-Day Weather Forecast

Advertisements
Track Severe Weather on mobile